ZPPP/KMG METAR and TAF weather

Enter ICAO airport designator
Station Type Date Time Source
ZPPP METAR 2020/10/29 17:00 UTC NOAA

ZPPP 291700Z 06003MPS 030V090 9999 SCT002 BKN020 OVC033 13/13 Q1029 NOSIG


Station Type Date Time Source
ZPPP Decoded METAR 2020/10/29 17:00 UTC NOAA

Kunming, China (ZPPP) 25-01N 102-41E 1892M
Oct 29, 2020 - 01:00 PM EDT / 2020.10.29 1700 UTC
Wind: from the ENE (060 degrees) at 7 MPH (6 KT) (direction variable):0
Visibility: greater than 7 mile(s):0
Sky conditions: overcast
Temperature: 55 F (13 C)
Dew Point: 55 F (13 C)
Relative Humidity: 100%
Pressure (altimeter): 30.39 in. Hg (1029 hPa)
ob: ZPPP 291700Z 06003MPS 030V090 9999 SCT002 BKN020 OVC033 13/13 Q1029 NOSIG
cycle: 17

Station Type Date Time Source
ZPPP TAF 2020/10/29 18:03 UTC NOAA

TAF ZPPP 291508Z 2918/3018 04004MPS 6000 FEW003 SCT020 BKN033 TX19/3008Z TN09/2923Z
BECMG 3001/3002 22005MPS

Example: see airport list